Time;durP1;ratioP1;P1;durP2;ratioP2;P2;SDS_P1;SDS_P2;PMS_P1;PMS_P2;Temp;Humidity;BMP_temperature;BMP_pressure;BME280_temperature;BME280_humidity;BME280_pressure;Samples;Min_cycle;Max_cycle;Signal;HPM_P1;HPM_P2
2023/03/04 00:00:27;;;;;;;42.90;34.87;;;5.00;92.90;;;;;;10412193;28;20267;-79
2023/03/04 00:05:30;;;;;;;35.10;29.23;;;4.90;92.80;;;;;;10418735;28;20229;-80
2023/03/04 00:10:32;;;;;;;37.20;31.30;;;4.90;92.90;;;;;;10406449;28;20230;-80
2023/03/04 00:15:35;;;;;;;39.17;30.13;;;4.80;92.80;;;;;;10422642;28;20216;-80
2023/03/04 00:20:37;;;;;;;38.23;29.03;;;4.80;92.90;;;;;;10419822;28;20206;-80
2023/03/04 00:25:39;;;;;;;34.63;28.10;;;4.80;92.90;;;;;;10419839;28;20759;-80
2023/03/04 00:30:42;;;;;;;36.83;29.77;;;4.80;92.70;;;;;;10419684;28;20670;-78
2023/03/04 00:35:44;;;;;;;37.33;29.50;;;4.70;92.80;;;;;;10418691;28;20273;-78
2023/03/04 00:40:46;;;;;;;35.60;28.70;;;4.70;92.80;;;;;;10419556;28;20208;-79
2023/03/04 00:45:50;;;;;;;33.93;28.17;;;4.60;92.80;;;;;;10419360;28;20219;-80
2023/03/04 00:50:52;;;;;;;38.03;31.53;;;4.60;92.90;;;;;;10426943;28;20315;-80
2023/03/04 00:55:54;;;;;;;35.67;28.60;;;4.60;93.40;;;;;;10425391;28;20232;-81
2023/03/04 01:00:58;;;;;;;31.83;28.37;;;4.60;92.80;;;;;;10426754;28;20222;-80
2023/03/04 01:06:00;;;;;;;31.80;25.53;;;4.60;92.90;;;;;;10432184;28;20320;-80
2023/03/04 01:11:03;;;;;;;31.43;26.00;;;4.70;92.70;;;;;;10424735;28;20284;-80
2023/03/04 01:16:09;;;;;;;37.67;28.87;;;4.70;92.50;;;;;;10430875;28;20301;-80
2023/03/04 01:21:11;;;;;;;33.13;26.90;;;4.60;92.70;;;;;;10422150;28;20197;-79
2023/03/04 01:26:13;;;;;;;32.70;27.70;;;4.60;92.60;;;;;;10420098;28;20704;-80
2023/03/04 01:31:16;;;;;;;32.80;27.07;;;4.50;92.50;;;;;;10421354;28;20199;-79
2023/03/04 01:36:19;;;;;;;29.60;26.00;;;4.50;92.60;;;;;;10421983;28;20244;-79
2023/03/04 01:41:26;;;;;;;36.17;29.03;;;4.40;92.60;;;;;;10422894;28;20283;-80
2023/03/04 01:46:30;;;;;;;31.50;26.20;;;4.40;92.60;;;;;;10421693;28;20228;-80
2023/03/04 01:51:33;;;;;;;30.83;26.37;;;4.30;92.70;;;;;;10404072;28;20196;-79
2023/03/04 01:56:37;;;;;;;34.57;26.80;;;4.30;92.70;;;;;;10417207;28;20221;-79
2023/03/04 02:01:42;;;;;;;32.63;27.93;;;4.30;92.40;;;;;;10414456;28;20742;-79
2023/03/04 02:06:46;;;;;;;34.73;27.70;;;4.20;92.70;;;;;;10415487;28;20306;-78
2023/03/04 02:11:50;;;;;;;33.97;28.07;;;4.20;92.70;;;;;;10419968;28;20207;-78
2023/03/04 02:16:55;;;;;;;31.77;25.67;;;4.10;92.60;;;;;;10417197;28;20216;-78
2023/03/04 02:21:58;;;;;;;32.23;26.80;;;4.10;92.60;;;;;;10419653;28;20199;-79
2023/03/04 02:27:01;;;;;;;33.73;26.33;;;4.10;92.40;;;;;;10429813;28;20674;-79
2023/03/04 02:32:04;;;;;;;29.83;25.57;;;4.00;92.50;;;;;;10414856;28;20225;-80
2023/03/04 02:43:57;;;;;;;32.40;27.00;;;3.90;92.60;;;;;;10363074;28;20292;-86
2023/03/04 02:49:15;;;;;;;31.50;26.43;;;3.80;92.50;;;;;;10361023;28;20224;-86
2023/03/04 02:54:46;;;;;;;32.70;26.30;;;3.70;92.80;;;;;;10510910;28;20213;-86
2023/03/04 03:00:18;;;;;;;;;;;;;;;;;;;;;
2023/03/04 03:11:47;;;;;;;30.30;25.13;;;3.70;92.80;;;;;;10509785;28;20234;-84
2023/03/04 03:17:00;;;;;;;33.10;26.87;;;3.70;92.50;;;;;;10482294;28;20233;-85
2023/03/04 03:23:19;;;;;;;32.30;26.07;;;3.60;92.80;;;;;;10505970;28;20197;-86
2023/03/04 03:48:40;;;;;;;30.47;27.13;;;3.40;92.70;;;;;;10074040;29;20239;-86
2023/03/04 03:54:33;;;;;;;31.60;26.17;;;3.30;92.80;;;;;;10167445;22;20300;-86
2023/03/04 04:06:33;;;;;;;32.57;25.57;;;3.30;92.60;;;;;;10308689;28;20227;-86
2023/03/04 04:12:42;;;;;;;28.47;23.83;;;3.30;92.60;;;;;;10310744;28;20605;-86
2023/03/04 04:18:15;;;;;;;30.40;24.70;;;3.30;92.90;;;;;;10425977;23;20717;-86
2023/03/04 04:41:44;;;;;;;29.03;24.10;;;3.20;93.00;;;;;;10302839;28;20207;-85
2023/03/04 04:47:22;;;;;;;30.20;24.10;;;3.20;92.60;;;;;;10388867;28;20227;-86
2023/03/04 04:53:27;;;;;;;;;;;;;;;;;;;;;
2023/03/04 05:11:45;;;;;;;28.63;24.63;;;3.00;92.70;;;;;;10194402;28;20298;-83
2023/03/04 05:18:26;;;;;;;28.10;23.77;;;2.90;92.80;;;;;;10318308;28;20238;-84
2023/03/04 06:04:32;;;;;;;32.93;25.57;;;2.80;92.80;;;;;;10330895;28;20218;-86
2023/03/04 06:23:12;;;;;;;34.83;26.87;;;3.10;94.20;;;;;;10154680;28;20221;-84
2023/03/04 06:28:14;;;;;;;35.33;25.67;;;3.40;94.20;;;;;;10498450;28;20217;-84
2023/03/04 06:33:16;;;;;;;29.97;24.93;;;3.60;93.90;;;;;;10539874;28;20722;-85
2023/03/04 06:38:19;;;;;;;33.27;25.37;;;3.80;93.70;;;;;;10532301;28;20217;-84
2023/03/04 06:43:21;;;;;;;32.67;25.07;;;4.00;93.60;;;;;;10549529;28;20218;-85
2023/03/04 06:48:23;;;;;;;31.70;25.60;;;4.20;93.30;;;;;;10548997;28;20260;-85
2023/03/04 06:53:27;;;;;;;32.80;25.73;;;4.30;93.30;;;;;;10524855;28;20253;-84
2023/03/04 06:58:29;;;;;;;31.17;25.70;;;4.40;92.80;;;;;;10527278;28;20244;-85
2023/03/04 07:03:31;;;;;;;30.33;25.07;;;4.50;92.50;;;;;;10528655;28;20256;-84
2023/03/04 07:08:34;;;;;;;34.83;26.30;;;4.50;92.50;;;;;;10529459;28;20674;-85
2023/03/04 07:13:37;;;;;;;30.57;25.50;;;4.60;92.70;;;;;;10546445;28;20315;-85
2023/03/04 07:18:40;;;;;;;28.70;23.93;;;4.70;92.40;;;;;;10529649;28;20214;-82
2023/03/04 07:23:44;;;;;;;28.33;23.63;;;4.70;92.30;;;;;;10545947;28;20605;-82
2023/03/04 07:28:47;;;;;;;30.97;24.10;;;4.70;92.10;;;;;;10531220;28;20219;-85
2023/03/04 07:33:49;;;;;;;29.50;24.90;;;4.70;92.00;;;;;;10531941;28;20275;-83
2023/03/04 07:38:53;;;;;;;29.63;23.57;;;4.80;92.10;;;;;;10546312;28;20635;-83
2023/03/04 07:43:56;;;;;;;28.27;22.50;;;4.90;92.00;;;;;;10543743;28;20245;-83
2023/03/04 07:48:58;;;;;;;28.47;23.10;;;5.00;91.90;;;;;;10527859;28;20306;-83
2023/03/04 07:54:02;;;;;;;29.97;22.67;;;5.10;91.70;;;;;;10528816;28;20209;-82
2023/03/04 07:59:04;;;;;;;27.10;22.53;;;5.10;91.60;;;;;;10507951;28;20201;-83
2023/03/04 08:04:07;;;;;;;25.70;21.70;;;5.20;91.70;;;;;;10546570;28;20301;-83
2023/03/04 08:09:12;;;;;;;26.83;22.23;;;5.20;91.40;;;;;;10529180;28;20243;-81
2023/03/04 08:14:15;;;;;;;29.30;22.20;;;5.20;91.20;;;;;;10543699;28;20649;-83
2023/03/04 08:19:17;;;;;;;29.53;23.03;;;5.10;91.60;;;;;;10526893;28;20192;-83
2023/03/04 08:24:20;;;;;;;29.13;22.50;;;5.10;91.70;;;;;;10525639;28;20225;-83
2023/03/04 08:29:24;;;;;;;25.57;21.63;;;5.20;91.80;;;;;;10526857;28;20236;-82
2023/03/04 08:34:28;;;;;;;25.20;20.40;;;5.30;91.60;;;;;;10567121;22;20250;-79
2023/03/04 08:39:32;;;;;;;27.63;21.70;;;5.30;91.60;;;;;;10520401;28;20645;-80
2023/03/04 08:44:34;;;;;;;27.70;21.60;;;5.30;91.40;;;;;;10484168;28;20216;-81
2023/03/04 08:49:36;;;;;;;28.60;21.93;;;5.40;91.20;;;;;;10467032;28;20204;-80
2023/03/04 08:54:39;;;;;;;26.60;22.73;;;5.40;91.50;;;;;;10521223;28;20230;-80
2023/03/04 08:59:41;;;;;;;27.20;23.33;;;5.40;91.40;;;;;;10473389;28;20197;-78
2023/03/04 09:04:43;;;;;;;32.57;24.00;;;5.50;91.70;;;;;;10528754;28;20217;-78
2023/03/04 09:09:47;;;;;;;28.37;23.50;;;5.50;91.60;;;;;;10496188;28;20268;-77
2023/03/04 09:14:49;;;;;;;29.50;23.57;;;5.60;91.50;;;;;;10522377;28;20263;-79
2023/03/04 09:19:51;;;;;;;28.07;24.37;;;5.60;91.30;;;;;;10530784;28;20191;-79
2023/03/04 09:24:54;;;;;;;28.63;21.10;;;5.60;91.20;;;;;;10499699;28;20319;-80
2023/03/04 09:29:56;;;;;;;26.77;20.97;;;5.70;91.00;;;;;;10523393;28;20630;-78
2023/03/04 09:34:58;;;;;;;27.90;22.67;;;5.70;91.10;;;;;;10540656;28;20603;-78
2023/03/04 09:40:02;;;;;;;25.70;22.63;;;5.80;91.00;;;;;;10500361;28;20219;-78
2023/03/04 09:45:07;;;;;;;26.50;22.13;;;5.90;90.60;;;;;;10503041;28;20213;-78
2023/03/04 09:50:12;;;;;;;28.80;22.30;;;5.90;90.70;;;;;;10485663;28;20305;-78
2023/03/04 09:55:24;;;;;;;24.63;21.63;;;6.00;90.20;;;;;;10502793;28;20748;-79
2023/03/04 10:00:34;;;;;;;23.77;21.17;;;6.10;90.30;;;;;;10483547;28;20209;-80
2023/03/04 10:05:40;;;;;;;26.80;23.33;;;6.10;90.30;;;;;;10539247;28;20771;-78
2023/03/04 10:10:45;;;;;;;25.63;22.93;;;6.20;89.20;;;;;;10541260;28;20180;-79
2023/03/04 10:15:50;;;;;;;27.20;23.40;;;6.40;88.70;;;;;;10514017;28;20215;-77
2023/03/04 10:20:57;;;;;;;30.43;26.47;;;6.50;88.90;;;;;;10498472;28;20179;-77
2023/03/04 10:26:10;;;;;;;28.00;23.47;;;6.70;88.40;;;;;;10480988;28;20235;-77
2023/03/04 10:31:21;;;;;;;27.80;24.80;;;6.90;88.00;;;;;;10481748;28;20189;-78
2023/03/04 10:36:50;;;;;;;29.60;25.00;;;7.00;86.80;;;;;;10497731;28;20221;-79
2023/03/04 10:41:59;;;;;;;27.83;24.80;;;7.00;85.80;;;;;;10485601;28;20273;-77
2023/03/04 10:47:01;;;;;;;28.67;25.57;;;7.00;86.00;;;;;;10514111;28;20241;-80
2023/03/04 10:52:19;;;;;;;30.87;26.30;;;7.00;86.40;;;;;;10462555;28;20228;-78
2023/03/04 10:57:28;;;;;;;33.47;28.87;;;7.00;85.50;;;;;;10506519;28;20602;-78
2023/03/04 11:02:32;;;;;;;32.70;28.87;;;7.10;84.80;;;;;;10536408;28;20619;-78
2023/03/04 11:07:40;;;;;;;33.30;29.50;;;7.10;85.50;;;;;;10533637;28;20631;-78
2023/03/04 11:12:49;;;;;;;38.10;31.83;;;7.10;85.90;;;;;;10525781;28;20197;-78
2023/03/04 11:17:53;;;;;;;41.10;31.30;;;7.10;85.10;;;;;;10521263;28;20213;-78
2023/03/04 11:22:57;;;;;;;40.77;33.50;;;7.20;85.20;;;;;;10509652;28;20202;-78
2023/03/04 11:28:06;;;;;;;41.10;35.33;;;7.30;85.10;;;;;;10498771;28;20217;-77
2023/03/04 11:33:25;;;;;;;38.33;33.40;;;7.30;84.10;;;;;;10508177;28;20195;-77
2023/03/04 11:38:32;;;;;;;39.03;34.37;;;7.40;84.40;;;;;;10521791;28;20193;-78
2023/03/04 11:43:38;;;;;;;35.10;31.30;;;7.40;84.60;;;;;;10507980;28;20302;-78
2023/03/04 11:48:52;;;;;;;42.57;34.57;;;7.50;84.40;;;;;;10502885;28;20244;-79
2023/03/04 11:54:08;;;;;;;39.70;34.40;;;7.60;83.90;;;;;;10487220;28;20667;-78
2023/03/04 11:59:38;;;;;;;41.23;35.80;;;7.50;83.40;;;;;;10518654;28;20251;-78
2023/03/04 12:04:59;;;;;;;40.67;36.03;;;7.50;83.80;;;;;;10506101;28;20662;-78
2023/03/04 12:10:14;;;;;;;41.87;36.43;;;7.50;82.50;;;;;;10500348;28;20256;-78
2023/03/04 12:15:25;;;;;;;48.27;40.97;;;7.40;83.70;;;;;;10501378;28;20249;-78
2023/03/04 12:20:56;;;;;;;39.63;35.30;;;7.40;84.50;;;;;;10505815;28;20254;-78
2023/03/04 12:26:03;;;;;;;40.47;36.07;;;7.40;84.10;;;;;;10530781;28;20221;-79
2023/03/04 12:31:35;;;;;;;42.13;34.97;;;7.30;83.90;;;;;;10492860;28;20762;-78
2023/03/04 12:36:47;;;;;;;40.70;36.17;;;7.30;82.50;;;;;;10523742;28;20247;-78
2023/03/04 12:41:55;;;;;;;43.47;36.30;;;7.40;82.20;;;;;;10493388;28;20192;-78
2023/03/04 12:47:17;;;;;;;42.37;37.53;;;7.30;84.20;;;;;;10532908;28;20254;-78
2023/03/04 12:52:29;;;;;;;42.57;36.17;;;7.40;82.90;;;;;;10494833;28;20202;-78
2023/03/04 12:57:33;;;;;;;44.03;36.00;;;7.40;83.60;;;;;;10482327;28;20264;-78
2023/03/04 13:03:14;;;;;;;41.07;36.50;;;7.40;83.30;;;;;;10527581;28;20199;-78
2023/03/04 13:08:29;;;;;;;47.37;38.80;;;7.40;84.20;;;;;;10476632;28;20767;-77
2023/03/04 13:13:38;;;;;;;41.07;35.70;;;7.40;83.70;;;;;;10532999;28;20224;-78
2023/03/04 13:18:40;;;;;;;46.10;38.30;;;7.40;84.10;;;;;;10514847;28;20230;-79
2023/03/04 13:23:43;;;;;;;42.77;37.97;;;7.30;83.90;;;;;;10506948;28;20233;-77
2023/03/04 13:29:17;;;;;;;46.80;38.70;;;7.30;84.00;;;;;;10490919;28;20221;-79
2023/03/04 13:34:42;;;;;;;44.80;35.07;;;7.30;83.70;;;;;;10500546;28;20297;-78
2023/03/04 13:40:06;;;;;;;43.83;36.10;;;7.20;83.10;;;;;;10499407;28;20216;-78
2023/03/04 13:45:32;;;;;;;41.87;33.40;;;7.20;83.50;;;;;;10500561;28;20575;-79
2023/03/04 13:50:45;;;;;;;39.67;32.67;;;7.20;82.90;;;;;;10527409;28;20232;-78
2023/03/04 13:56:20;;;;;;;39.63;32.63;;;7.10;82.80;;;;;;10504600;28;20288;-78
2023/03/04 14:01:29;;;;;;;35.30;28.10;;;7.20;82.80;;;;;;10511655;28;20212;-78
2023/03/04 14:06:33;;;;;;;33.93;23.10;;;7.10;81.80;;;;;;10519830;28;20225;-78
2023/03/04 14:11:41;;;;;;;30.60;24.43;;;7.10;82.10;;;;;;10500170;28;20227;-78
2023/03/04 14:16:49;;;;;;;29.33;21.87;;;7.10;82.30;;;;;;10503307;28;20220;-78
2023/03/04 14:21:51;;;;;;;26.43;20.77;;;7.00;83.00;;;;;;10524608;28;20201;-78
2023/03/04 14:27:11;;;;;;;29.30;19.37;;;7.00;83.00;;;;;;10502857;28;20228;-78
2023/03/04 14:32:14;;;;;;;24.87;20.27;;;7.00;82.50;;;;;;10502580;28;20206;-78
2023/03/04 14:37:21;;;;;;;27.40;20.00;;;7.00;83.50;;;;;;10477120;22;20239;-83
2023/03/04 14:54:34;;;;;;;32.00;22.50;;;7.10;82.80;;;;;;10505899;28;20238;-84
2023/03/04 14:59:37;;;;;;;32.47;22.20;;;7.00;83.00;;;;;;10521671;28;20181;-84
2023/03/04 15:04:40;;;;;;;26.33;21.97;;;6.90;83.20;;;;;;10523910;28;20220;-82
2023/03/04 15:09:49;;;;;;;27.87;22.57;;;6.90;83.10;;;;;;10471524;28;20247;-82
2023/03/04 15:21:43;;;;;;;31.33;23.30;;;6.90;82.70;;;;;;10471105;28;20250;-81
2023/03/04 15:27:19;;;;;;;34.07;22.30;;;6.80;83.60;;;;;;10461831;28;20754;-81
2023/03/04 15:32:45;;;;;;;31.40;22.80;;;6.70;84.50;;;;;;10497440;28;20204;-81
2023/03/04 15:37:51;;;;;;;29.80;23.13;;;6.80;84.30;;;;;;10539977;28;20218;-83
2023/03/04 15:42:53;;;;;;;32.83;23.23;;;6.80;84.90;;;;;;10495984;28;20193;-84
2023/03/04 15:47:55;;;;;;;33.07;22.97;;;6.80;84.70;;;;;;10486408;28;20228;-84
2023/03/04 15:53:03;;;;;;;27.33;21.50;;;6.80;83.60;;;;;;10498608;28;20207;-84
2023/03/04 16:04:41;;;;;;;31.23;21.90;;;6.70;85.70;;;;;;10420510;28;20325;-80
2023/03/04 16:09:46;;;;;;;30.33;23.07;;;6.70;85.70;;;;;;10512437;28;20217;-82
2023/03/04 16:14:50;;;;;;;27.73;22.43;;;6.70;85.30;;;;;;10512997;28;20221;-82
2023/03/04 16:19:52;;;;;;;26.40;22.47;;;6.70;84.70;;;;;;10490681;28;20201;-82
2023/03/04 16:24:55;;;;;;;41.43;33.27;;;6.70;85.60;;;;;;10436020;28;20248;-81
2023/03/04 16:35:33;;;;;;;31.43;24.33;;;6.70;85.80;;;;;;10457644;28;20216;-79
2023/03/04 16:40:36;;;;;;;25.20;21.80;;;6.70;85.50;;;;;;10528582;28;20275;-80
2023/03/04 16:45:38;;;;;;;27.67;21.97;;;6.70;85.50;;;;;;10527120;28;20311;-78
2023/03/04 16:57:36;;;;;;;28.80;22.43;;;6.70;86.30;;;;;;10270099;28;20242;-81
2023/03/04 17:02:39;;;;;;;32.40;23.50;;;6.60;87.50;;;;;;10366254;28;20239;-82
2023/03/04 17:07:41;;;;;;;36.53;24.30;;;6.70;87.00;;;;;;10506346;28;20308;-79
2023/03/04 17:12:44;;;;;;;32.37;24.50;;;6.70;87.50;;;;;;10521556;28;20192;-79
2023/03/04 17:17:47;;;;;;;37.57;24.30;;;6.70;87.30;;;;;;10502164;28;20650;-79
2023/03/04 17:22:49;;;;;;;34.07;24.70;;;6.70;87.20;;;;;;10543776;28;20231;-79
2023/03/04 17:27:52;;;;;;;34.80;24.93;;;6.70;87.00;;;;;;10502544;28;20264;-78
2023/03/04 17:32:54;;;;;;;37.13;25.03;;;6.70;87.50;;;;;;10537707;28;20283;-79
2023/03/04 17:37:56;;;;;;;35.70;25.80;;;6.70;87.30;;;;;;10526812;28;20215;-79
2023/03/04 17:43:00;;;;;;;36.07;24.90;;;6.70;86.90;;;;;;10479919;28;20196;-79
2023/03/04 17:48:02;;;;;;;33.33;24.20;;;6.70;87.40;;;;;;10461094;28;20226;-78
2023/03/04 17:53:04;;;;;;;36.60;23.90;;;6.70;87.00;;;;;;10514957;28;20199;-79
2023/03/04 17:58:08;;;;;;;37.30;25.27;;;6.70;87.10;;;;;;10502580;28;20684;-79
2023/03/04 18:03:12;;;;;;;32.93;24.40;;;6.70;87.40;;;;;;10531734;28;20193;-79
2023/03/04 18:08:14;;;;;;;34.77;24.13;;;6.70;87.80;;;;;;10479422;28;20639;-79
2023/03/04 18:13:17;;;;;;;38.97;25.83;;;6.70;87.80;;;;;;10518648;28;20226;-79
2023/03/04 18:18:19;;;;;;;31.30;22.67;;;6.70;88.20;;;;;;10484174;28;20221;-79
2023/03/04 18:23:21;;;;;;;29.83;21.30;;;6.80;88.50;;;;;;10486843;28;20242;-79
2023/03/04 18:28:25;;;;;;;31.13;23.90;;;6.80;88.50;;;;;;10459112;28;20210;-79
2023/03/04 18:33:28;;;;;;;34.57;24.03;;;6.80;87.80;;;;;;10509159;28;20211;-79
2023/03/04 18:38:30;;;;;;;32.43;22.53;;;6.80;87.30;;;;;;10460656;28;20252;-79
2023/03/04 18:43:33;;;;;;;31.93;23.20;;;6.80;87.50;;;;;;10520959;28;20193;-79
2023/03/04 18:48:39;;;;;;;34.43;22.67;;;6.80;87.10;;;;;;10475989;28;20224;-80
2023/03/04 18:53:41;;;;;;;29.60;23.23;;;6.70;86.90;;;;;;10524861;28;20630;-80
2023/03/04 18:58:46;;;;;;;28.77;22.03;;;6.70;87.20;;;;;;10477414;28;20192;-80
2023/03/04 19:03:49;;;;;;;29.00;22.67;;;6.60;88.00;;;;;;10527548;28;20285;-80
2023/03/04 19:08:54;;;;;;;31.53;22.77;;;6.70;88.50;;;;;;10543067;28;20680;-80
2023/03/04 19:13:57;;;;;;;30.17;22.73;;;6.70;87.30;;;;;;10529191;28;20217;-80
2023/03/04 19:18:59;;;;;;;33.90;21.87;;;6.70;87.80;;;;;;10539030;28;20216;-79
2023/03/04 19:24:01;;;;;;;28.33;21.40;;;6.60;88.30;;;;;;10527269;28;20276;-79
2023/03/04 19:29:06;;;;;;;36.23;22.47;;;6.60;88.20;;;;;;10495078;28;20220;-80
2023/03/04 19:34:09;;;;;;;33.03;23.40;;;6.70;88.20;;;;;;10523309;28;20221;-79
2023/03/04 19:39:12;;;;;;;32.83;24.03;;;6.70;87.40;;;;;;10537114;28;20199;-80
2023/03/04 19:44:20;;;;;;;30.23;21.73;;;6.70;88.00;;;;;;10524731;28;20583;-79
2023/03/04 19:49:22;;;;;;;31.03;23.40;;;6.70;87.70;;;;;;10503583;28;20246;-79
2023/03/04 19:59:35;;;;;;;31.30;23.10;;;6.70;88.70;;;;;;10622735;27;20628;-79
2023/03/04 20:04:41;;;;;;;30.83;22.43;;;6.70;88.20;;;;;;10573411;28;20222;-79
2023/03/04 20:09:49;;;;;;;27.23;21.67;;;6.70;87.50;;;;;;10608435;28;20218;-79
2023/03/04 20:14:52;;;;;;;28.53;21.00;;;6.60;88.00;;;;;;10627963;28;20669;-79
2023/03/04 20:19:54;;;;;;;35.87;22.13;;;6.60;87.30;;;;;;10610595;27;20291;-80
2023/03/04 20:24:57;;;;;;;27.20;21.67;;;6.60;87.90;;;;;;10599514;27;20724;-79
2023/03/04 20:30:00;;;;;;;30.20;22.13;;;6.60;88.50;;;;;;10576162;28;20222;-80
2023/03/04 20:35:02;;;;;;;37.30;24.70;;;6.60;87.40;;;;;;10625799;22;20756;-79
2023/03/04 20:40:05;;;;;;;33.93;24.80;;;6.60;87.60;;;;;;10565358;28;20603;-78
2023/03/04 20:45:10;;;;;;;33.13;24.57;;;6.60;87.60;;;;;;10580376;28;20215;-77
2023/03/04 20:50:12;;;;;;;31.60;22.60;;;6.60;87.40;;;;;;10537302;28;20330;-78
2023/03/04 20:55:14;;;;;;;35.10;24.00;;;6.50;87.50;;;;;;10530905;28;20211;-79
2023/03/04 21:00:18;;;;;;;31.03;23.13;;;6.50;88.00;;;;;;10582357;28;20199;-77
2023/03/04 21:05:20;;;;;;;31.13;23.70;;;6.50;87.40;;;;;;10564102;28;20220;-78
2023/03/04 21:10:22;;;;;;;32.93;22.13;;;6.30;87.30;;;;;;10565213;28;20249;-78
2023/03/04 21:15:25;;;;;;;25.73;19.03;;;6.20;87.50;;;;;;10583081;28;20217;-79
2023/03/04 21:20:27;;;;;;;30.30;22.40;;;6.00;89.10;;;;;;10558746;28;20193;-79
2023/03/04 21:25:29;;;;;;;31.87;22.93;;;6.10;89.00;;;;;;10530234;28;20286;-79
2023/03/04 21:30:33;;;;;;;28.90;21.63;;;6.10;88.90;;;;;;10532084;28;20696;-80
2023/03/04 21:35:35;;;;;;;29.87;21.10;;;6.20;88.60;;;;;;10545482;28;20231;-79
2023/03/04 21:40:37;;;;;;;27.93;21.10;;;6.30;89.70;;;;;;10529690;28;20192;-79
2023/03/04 21:45:41;;;;;;;28.33;21.90;;;6.40;89.50;;;;;;10546243;28;20546;-79
2023/03/04 21:50:43;;;;;;;33.97;21.70;;;6.50;89.70;;;;;;10545397;28;20304;-78
2023/03/04 21:55:45;;;;;;;28.17;21.90;;;6.60;88.70;;;;;;10526830;28;20261;-78
2023/03/04 22:00:50;;;;;;;29.70;20.90;;;6.60;89.80;;;;;;10556060;28;20305;-78
2023/03/04 22:05:52;;;;;;;33.33;23.13;;;6.70;88.20;;;;;;10569169;28;20227;-79
2023/03/04 22:10:54;;;;;;;31.23;23.50;;;6.70;88.00;;;;;;10552286;28;20211;-77
2023/03/04 22:15:59;;;;;;;30.77;23.53;;;6.70;87.40;;;;;;10565195;28;20222;-81
2023/03/04 22:21:02;;;;;;;28.20;23.37;;;6.70;88.50;;;;;;10542106;28;20224;-78
2023/03/04 22:26:05;;;;;;;32.70;22.13;;;6.70;89.00;;;;;;10528073;28;20359;-78
2023/03/04 22:31:17;;;;;;;31.60;22.53;;;6.70;89.10;;;;;;10544595;28;20214;-78
2023/03/04 22:36:19;;;;;;;31.67;23.77;;;6.80;88.60;;;;;;10510182;28;20713;-78
2023/03/04 22:41:21;;;;;;;29.97;22.30;;;6.80;87.90;;;;;;10572042;28;20187;-78
2023/03/04 22:46:27;;;;;;;29.30;22.13;;;6.70;87.90;;;;;;10582989;28;20714;-81
2023/03/04 22:51:29;;;;;;;27.60;22.60;;;6.80;88.30;;;;;;10539622;28;20220;-79
2023/03/04 22:56:31;;;;;;;26.53;22.00;;;6.80;88.70;;;;;;10527889;28;20589;-78
2023/03/04 23:01:35;;;;;;;31.73;22.37;;;6.80;88.20;;;;;;10505106;28;20228;-78
2023/03/04 23:06:37;;;;;;;27.73;21.53;;;6.70;88.70;;;;;;10520960;28;20220;-78
2023/03/04 23:11:39;;;;;;;29.50;23.33;;;6.70;89.20;;;;;;10540493;28;20208;-79
2023/03/04 23:16:43;;;;;;;33.40;23.13;;;6.80;90.00;;;;;;10545937;28;20300;-80
2023/03/04 23:21:45;;;;;;;27.70;23.47;;;6.80;89.10;;;;;;10568803;28;20191;-79
2023/03/04 23:26:47;;;;;;;31.50;22.37;;;6.90;89.50;;;;;;10559873;28;20216;-79
2023/03/04 23:31:50;;;;;;;29.50;22.33;;;6.90;88.60;;;;;;10562310;28;20218;-79
2023/03/04 23:36:52;;;;;;;28.40;21.20;;;6.90;89.70;;;;;;10526968;28;20230;-79
2023/03/04 23:42:01;;;;;;;29.17;21.33;;;6.90;89.30;;;;;;10544041;28;20193;-78
2023/03/04 23:47:05;;;;;;;28.13;20.60;;;6.90;89.40;;;;;;10545564;28;20201;-78
2023/03/04 23:52:08;;;;;;;25.30;19.87;;;6.80;89.60;;;;;;10504459;28;20300;-78
2023/03/04 23:57:12;;;;;;;30.40;21.40;;;6.80;89.90;;;;;;10547737;28;20228;-78
